Time;durP1;ratioP1;P1;durP2;ratioP2;P2;SDS_P1;SDS_P2;PMS_P1;PMS_P2;Temp;Humidity;BMP_temperature;BMP_pressure;BME280_temperature;BME280_humidity;BME280_pressure;Samples;Min_cycle;Max_cycle;Signal;HPM_P1;HPM_P2
2021/03/07 00:00:42;;;;;;;1.40;1.40;;;-0.50;98.00;;;;;;5074629;28;20974;-72
2021/03/07 00:03:12;;;;;;;3.10;2.53;;;-0.80;98.00;;;;;;5073278;28;20508;-72
2021/03/07 00:05:38;;;;;;;1.30;1.20;;;-0.90;98.00;;;;;;5074611;28;20499;-72
2021/03/07 00:08:06;;;;;;;1.20;1.10;;;-0.70;98.00;;;;;;5074285;28;20773;-72
2021/03/07 00:10:32;;;;;;;1.20;1.10;;;-0.70;98.00;;;;;;5072393;28;21299;-72
2021/03/07 00:12:59;;;;;;;1.50;1.33;;;-0.80;98.00;;;;;;5073937;28;20505;-72
2021/03/07 00:15:26;;;;;;;3.30;1.93;;;-0.80;98.00;;;;;;5071638;28;20459;-72
2021/03/07 00:17:52;;;;;;;1.47;1.30;;;-0.70;98.00;;;;;;5074041;28;20460;-72
2021/03/07 00:20:22;;;;;;;4.50;2.03;;;-0.80;98.00;;;;;;5086824;28;20473;-72
2021/03/07 00:22:50;;;;;;;1.20;1.20;;;-0.90;98.00;;;;;;5073869;28;20532;-72
2021/03/07 00:25:18;;;;;;;3.93;1.67;;;-1.10;98.00;;;;;;5071333;28;20473;-72
2021/03/07 00:27:45;;;;;;;2.23;2.13;;;-1.30;98.00;;;;;;5073805;28;20507;-72
2021/03/07 00:30:14;;;;;;;2.37;2.17;;;-1.10;98.00;;;;;;5071071;28;20458;-72
2021/03/07 00:32:42;;;;;;;1.80;1.57;;;-1.00;98.00;;;;;;5073241;28;20497;-72
2021/03/07 00:35:09;;;;;;;3.60;1.63;;;-1.10;98.00;;;;;;5070716;28;20453;-72
2021/03/07 00:37:37;;;;;;;5.05;2.30;;;-1.30;98.00;;;;;;5073429;28;20972;-72
2021/03/07 00:40:05;;;;;;;3.47;1.63;;;-1.40;98.00;;;;;;5071081;28;20222;-72
2021/03/07 00:42:32;;;;;;;1.37;1.33;;;-1.60;98.00;;;;;;5072512;28;20477;-72
2021/03/07 00:44:59;;;;;;;1.20;1.10;;;-1.60;98.00;;;;;;5071577;28;20454;-72
2021/03/07 00:47:25;;;;;;;1.60;1.50;;;-1.60;98.00;;;;;;5073707;28;20458;-72
2021/03/07 00:49:52;;;;;;;1.20;1.00;;;-1.70;98.00;;;;;;5070967;28;20457;-72
2021/03/07 00:52:19;;;;;;;1.20;1.00;;;-1.80;98.00;;;;;;5073474;28;20458;-72
2021/03/07 00:54:46;;;;;;;1.20;1.20;;;-1.60;98.00;;;;;;5070926;28;20666;-72
2021/03/07 00:57:13;;;;;;;1.20;1.10;;;-1.60;98.00;;;;;;5073332;28;20463;-72
2021/03/07 00:59:40;;;;;;;1.20;1.10;;;-1.50;98.00;;;;;;5070961;28;20462;-72
2021/03/07 01:02:06;;;;;;;1.30;1.30;;;-1.60;98.00;;;;;;5088671;28;20496;-72
2021/03/07 01:04:33;;;;;;;1.98;1.50;;;-1.70;98.00;;;;;;5070587;28;20488;-71
2021/03/07 01:07:00;;;;;;;1.40;1.20;;;-1.70;98.00;;;;;;5072714;28;20307;-72
2021/03/07 01:09:28;;;;;;;2.43;1.57;;;-1.70;98.00;;;;;;5070498;28;20215;-72
2021/03/07 01:11:55;;;;;;;1.67;1.63;;;-1.70;98.00;;;;;;5072877;28;20952;-72
2021/03/07 01:14:22;;;;;;;1.20;1.00;;;-1.40;98.00;;;;;;5070377;28;20457;-71
2021/03/07 01:16:48;;;;;;;1.20;1.10;;;-1.40;98.00;;;;;;5072514;28;20258;-71
2021/03/07 01:19:16;;;;;;;2.40;1.43;;;-1.30;98.00;;;;;;5069961;28;20979;-71
2021/03/07 01:21:42;;;;;;;1.40;1.30;;;-1.30;98.00;;;;;;5088046;28;20870;-71
2021/03/07 01:24:09;;;;;;;1.20;1.20;;;-1.30;98.00;;;;;;5070098;28;20484;-72
2021/03/07 01:26:36;;;;;;;1.20;1.10;;;-1.10;98.00;;;;;;5072329;28;20476;-71
2021/03/07 01:29:04;;;;;;;1.75;1.70;;;-1.30;98.00;;;;;;5070047;28;20500;-71
2021/03/07 01:31:30;;;;;;;1.77;1.48;;;-1.30;98.00;;;;;;5072342;28;20198;-72
2021/03/07 01:33:57;;;;;;;1.20;1.10;;;-1.40;98.00;;;;;;5069876;28;20256;-72
2021/03/07 01:36:23;;;;;;;1.50;1.40;;;-1.50;98.00;;;;;;5072359;28;20473;-71
2021/03/07 01:38:50;;;;;;;2.07;1.87;;;-1.60;98.00;;;;;;5070169;28;21218;-72
2021/03/07 01:41:16;;;;;;;1.20;1.10;;;-1.80;98.00;;;;;;5072235;28;20870;-72
2021/03/07 01:43:43;;;;;;;1.20;1.02;;;-1.60;98.00;;;;;;5069662;28;20512;-71
2021/03/07 01:46:10;;;;;;;1.20;1.10;;;-1.40;98.00;;;;;;5072510;28;20211;-71
2021/03/07 01:48:39;;;;;;;1.80;1.30;;;-1.70;98.00;;;;;;5069829;28;20453;-71
2021/03/07 01:51:05;;;;;;;1.83;1.50;;;-1.80;98.00;;;;;;5072429;28;20482;-71
2021/03/07 01:53:32;;;;;;;1.20;1.10;;;-1.70;98.00;;;;;;5069887;28;20195;-72
2021/03/07 01:55:59;;;;;;;3.97;2.17;;;-1.60;98.00;;;;;;5087788;28;20516;-71
2021/03/07 01:58:28;;;;;;;1.77;1.57;;;-1.60;98.00;;;;;;5069724;28;20527;-72
2021/03/07 02:00:55;;;;;;;3.70;1.50;;;-1.50;98.00;;;;;;5087724;28;20508;-71
2021/03/07 02:03:24;;;;;;;1.20;0.95;;;-1.40;98.00;;;;;;5070326;28;20473;-71
2021/03/07 02:05:50;;;;;;;2.10;1.85;;;-1.60;98.00;;;;;;5072039;28;20200;-71
2021/03/07 02:08:19;;;;;;;1.90;1.80;;;-1.70;98.00;;;;;;5071870;28;20204;-71
2021/03/07 02:10:50;;;;;;;1.20;1.20;;;-1.80;98.00;;;;;;5071266;28;20516;-71
2021/03/07 02:13:22;;;;;;;1.87;1.40;;;-1.70;98.00;;;;;;5071703;28;20230;-71
2021/03/07 02:15:51;;;;;;;1.77;1.73;;;-1.70;98.00;;;;;;5071224;28;20458;-71
2021/03/07 02:18:18;;;;;;;3.15;2.15;;;-1.70;98.00;;;;;;5071624;28;20532;-71
2021/03/07 02:20:51;;;;;;;2.27;1.53;;;-1.70;98.00;;;;;;5084751;28;20245;-71
2021/03/07 02:23:21;;;;;;;1.30;1.20;;;-1.70;98.00;;;;;;5086668;28;20546;-71
2021/03/07 02:25:50;;;;;;;1.42;1.33;;;-1.80;98.00;;;;;;5070741;28;20633;-71
2021/03/07 02:28:17;;;;;;;1.75;1.55;;;-2.00;98.00;;;;;;5071588;28;20202;-71
2021/03/07 02:30:44;;;;;;;2.15;1.50;;;-2.10;98.00;;;;;;5069238;28;20230;-71
2021/03/07 02:33:18;;;;;;;1.20;1.00;;;-2.30;98.00;;;;;;5086844;28;20275;-71
2021/03/07 02:35:50;;;;;;;4.30;1.65;;;-2.40;98.00;;;;;;5069063;28;20849;-71
2021/03/07 02:38:19;;;;;;;1.20;1.00;;;-2.40;98.00;;;;;;5086542;28;20871;-71
2021/03/07 02:40:52;;;;;;;1.40;1.20;;;-2.30;98.00;;;;;;5069243;28;20214;-71
2021/03/07 02:43:20;;;;;;;1.70;1.38;;;-2.20;98.00;;;;;;5071009;28;20514;-71
2021/03/07 02:45:47;;;;;;;1.20;1.10;;;-2.20;98.00;;;;;;5067263;28;20202;-71
2021/03/07 02:48:20;;;;;;;1.40;1.30;;;-2.10;98.00;;;;;;5071058;28;20824;-71
2021/03/07 02:50:48;;;;;;;1.40;1.33;;;-2.00;98.00;;;;;;5068846;28;20198;-71
2021/03/07 02:53:20;;;;;;;1.60;1.55;;;-1.90;98.00;;;;;;5071292;28;20611;-71
2021/03/07 02:55:52;;;;;;;1.50;1.45;;;-2.10;98.00;;;;;;5068425;28;20231;-71
2021/03/07 02:58:23;;;;;;;2.22;1.67;;;-2.00;98.00;;;;;;5071390;28;20202;-71
2021/03/07 03:00:55;;;;;;;5.03;2.55;;;-2.20;98.00;;;;;;5068875;28;20234;-71
2021/03/07 03:03:26;;;;;;;1.30;1.30;;;-2.10;98.00;;;;;;5071351;28;20225;-71
2021/03/07 03:05:53;;;;;;;2.23;1.60;;;-2.20;98.00;;;;;;5070184;28;20203;-71
2021/03/07 03:08:23;;;;;;;1.30;1.30;;;-2.30;98.00;;;;;;5071599;28;20809;-71
2021/03/07 03:10:51;;;;;;;1.20;1.10;;;-2.20;98.00;;;;;;5069561;28;20206;-71
2021/03/07 03:13:21;;;;;;;1.50;1.33;;;-2.10;98.00;;;;;;5071447;28;20232;-71
2021/03/07 03:15:48;;;;;;;1.20;1.10;;;-2.30;98.00;;;;;;5068735;28;20643;-71
2021/03/07 03:18:17;;;;;;;1.20;1.00;;;-2.30;98.00;;;;;;5086679;28;20756;-71
2021/03/07 03:20:44;;;;;;;1.30;1.20;;;-2.60;98.00;;;;;;5068478;28;20250;-71
2021/03/07 03:23:11;;;;;;;1.73;1.40;;;-2.60;98.00;;;;;;5071061;28;20276;-71
2021/03/07 03:25:38;;;;;;;1.20;1.02;;;-2.70;98.00;;;;;;5068412;28;20214;-71
2021/03/07 03:28:04;;;;;;;3.15;1.65;;;-2.50;98.00;;;;;;5071016;28;20202;-71
2021/03/07 03:30:32;;;;;;;2.53;2.15;;;-2.60;98.00;;;;;;5068384;28;20206;-71
2021/03/07 03:32:58;;;;;;;1.20;1.10;;;-2.70;98.00;;;;;;5070875;28;20207;-71
2021/03/07 03:35:25;;;;;;;2.00;1.52;;;-2.70;98.00;;;;;;5068520;28;20205;-71
2021/03/07 03:37:52;;;;;;;1.20;1.00;;;-2.60;98.00;;;;;;5070970;28;20207;-71
2021/03/07 03:40:21;;;;;;;1.98;1.50;;;-2.50;98.00;;;;;;5068580;28;20202;-71
2021/03/07 03:42:53;;;;;;;1.20;1.17;;;-2.50;98.00;;;;;;5070374;28;20211;-71
2021/03/07 03:45:21;;;;;;;1.80;1.58;;;-2.40;98.00;;;;;;5068376;28;20256;-71
2021/03/07 03:47:54;;;;;;;1.20;1.20;;;-2.60;98.00;;;;;;5070516;28;20618;-71
2021/03/07 03:50:22;;;;;;;1.52;1.35;;;-2.80;98.00;;;;;;5068410;28;20249;-71
2021/03/07 03:52:50;;;;;;;1.95;1.67;;;-3.00;98.00;;;;;;5070635;28;20511;-71
2021/03/07 03:55:21;;;;;;;1.30;1.25;;;-3.00;98.00;;;;;;5068145;28;20217;-71
2021/03/07 03:57:51;;;;;;;2.10;1.63;;;-3.00;98.00;;;;;;5070519;28;20597;-71
2021/03/07 04:00:21;;;;;;;2.95;1.95;;;-3.00;98.00;;;;;;5068462;28;20214;-71
2021/03/07 04:02:50;;;;;;;1.20;1.10;;;-2.90;98.00;;;;;;5070293;28;20210;-71
2021/03/07 04:05:18;;;;;;;2.03;1.80;;;-2.80;98.00;;;;;;5068109;28;20210;-72
2021/03/07 04:07:46;;;;;;;2.90;1.45;;;-2.90;98.00;;;;;;5070487;28;20680;-71
2021/03/07 04:10:16;;;;;;;3.55;2.20;;;-3.00;98.00;;;;;;5068470;28;20226;-71
2021/03/07 04:12:43;;;;;;;1.38;1.35;;;-3.20;98.00;;;;;;5070401;28;20210;-71
2021/03/07 04:15:11;;;;;;;1.20;1.10;;;-3.30;98.00;;;;;;5068362;28;20195;-71
2021/03/07 04:17:38;;;;;;;1.75;1.50;;;-3.40;98.00;;;;;;5071340;28;20575;-72
2021/03/07 04:20:08;;;;;;;1.40;1.33;;;-3.40;98.00;;;;;;5071909;28;20241;-71
2021/03/07 04:22:35;;;;;;;1.48;1.40;;;-3.30;98.00;;;;;;5073914;28;20230;-71
2021/03/07 04:25:02;;;;;;;1.20;1.10;;;-3.20;98.00;;;;;;5071784;28;20704;-71
2021/03/07 04:27:30;;;;;;;1.20;1.20;;;-3.20;98.00;;;;;;5074012;28;20210;-71
2021/03/07 04:29:57;;;;;;;1.20;1.10;;;-3.30;98.00;;;;;;5071563;28;20230;-71
2021/03/07 04:32:23;;;;;;;1.70;1.40;;;-3.20;98.00;;;;;;5073903;28;20245;-71
2021/03/07 04:34:50;;;;;;;1.38;1.30;;;-3.20;98.00;;;;;;5071518;28;20339;-71
2021/03/07 04:37:18;;;;;;;1.20;1.08;;;-3.20;98.00;;;;;;5073791;28;20202;-71
2021/03/07 04:39:45;;;;;;;1.20;1.10;;;-3.20;98.00;;;;;;5071375;28;20230;-71
2021/03/07 04:42:11;;;;;;;1.50;1.20;;;-3.30;98.00;;;;;;5073613;28;20206;-71
2021/03/07 04:44:38;;;;;;;2.75;2.00;;;-3.30;98.00;;;;;;5070954;28;20262;-71
2021/03/07 04:47:06;;;;;;;1.35;1.30;;;-3.20;98.00;;;;;;5073412;28;20207;-71
2021/03/07 04:49:33;;;;;;;1.20;1.10;;;-3.30;98.00;;;;;;5071044;28;20218;-71
2021/03/07 04:51:59;;;;;;;1.40;1.38;;;-3.30;98.00;;;;;;5073291;28;20235;-71
2021/03/07 04:54:27;;;;;;;2.63;2.08;;;-3.20;98.00;;;;;;5071177;28;20210;-71
2021/03/07 04:56:53;;;;;;;1.40;1.35;;;-3.30;98.00;;;;;;5073333;28;20207;-71
2021/03/07 04:59:20;;;;;;;1.20;1.10;;;-3.30;98.00;;;;;;5086313;28;20199;-71
2021/03/07 05:01:46;;;;;;;1.20;1.00;;;-3.40;98.00;;;;;;5073159;28;20199;-71
2021/03/07 05:04:13;;;;;;;1.20;1.10;;;-3.40;98.00;;;;;;5070953;28;20219;-71
2021/03/07 05:06:40;;;;;;;1.20;1.10;;;-3.40;98.00;;;;;;5073170;28;20680;-71
2021/03/07 05:09:08;;;;;;;2.03;1.92;;;-3.50;98.00;;;;;;5070702;28;20210;-71
2021/03/07 05:11:36;;;;;;;1.30;1.20;;;-3.40;98.00;;;;;;5072961;28;20206;-71
2021/03/07 05:14:04;;;;;;;1.20;1.17;;;-3.50;98.00;;;;;;5070406;28;20231;-71
2021/03/07 05:16:31;;;;;;;1.35;1.17;;;-3.30;98.00;;;;;;5072950;28;20203;-71
2021/03/07 05:18:58;;;;;;;1.20;1.02;;;-3.10;98.00;;;;;;5070477;28;20262;-71
2021/03/07 05:21:25;;;;;;;1.20;1.00;;;-3.20;98.00;;;;;;5072788;28;20657;-71
2021/03/07 05:23:54;;;;;;;1.45;1.35;;;-3.20;98.00;;;;;;5070402;28;20223;-71
2021/03/07 05:26:21;;;;;;;1.20;1.10;;;-3.20;98.00;;;;;;5072406;28;20210;-71
2021/03/07 05:28:48;;;;;;;1.30;1.25;;;-3.30;98.00;;;;;;5085322;28;20656;-71
2021/03/07 05:31:15;;;;;;;1.77;1.65;;;-3.60;98.00;;;;;;5072898;28;20202;-71
2021/03/07 05:33:42;;;;;;;1.40;1.30;;;-3.70;98.00;;;;;;5071565;28;20213;-71
2021/03/07 05:36:09;;;;;;;1.20;1.10;;;-3.60;98.00;;;;;;5088210;28;20281;-72
2021/03/07 05:38:38;;;;;;;2.72;2.15;;;-3.50;98.00;;;;;;5088243;28;20244;-72
2021/03/07 05:41:05;;;;;;;3.85;2.42;;;-3.40;98.00;;;;;;5070564;28;20206;-72
2021/03/07 05:43:32;;;;;;;2.20;1.40;;;-3.40;98.00;;;;;;5072134;28;20222;-72
2021/03/07 05:45:59;;;;;;;1.30;1.30;;;-3.40;98.00;;;;;;5069169;28;20214;-72
2021/03/07 05:48:29;;;;;;;2.40;1.88;;;-3.40;98.00;;;;;;5071719;28;20604;-72
2021/03/07 05:50:55;;;;;;;1.85;1.30;;;-3.30;98.00;;;;;;5069222;28;20207;-72
2021/03/07 05:53:23;;;;;;;2.63;1.88;;;-3.30;98.00;;;;;;5072393;28;20222;-72
2021/03/07 05:55:51;;;;;;;1.55;1.30;;;-3.20;98.00;;;;;;5069681;28;20256;-72
2021/03/07 05:58:18;;;;;;;3.95;2.17;;;-3.40;98.00;;;;;;5072070;28;20295;-72
2021/03/07 06:00:45;;;;;;;2.53;1.60;;;-3.60;98.00;;;;;;5084957;28;20210;-72
2021/03/07 06:03:13;;;;;;;1.20;1.05;;;-3.60;98.00;;;;;;5086988;28;20205;-72
2021/03/07 06:05:41;;;;;;;1.20;1.10;;;-3.70;98.00;;;;;;5069407;28;20238;-72
2021/03/07 06:08:07;;;;;;;1.30;1.20;;;-3.60;98.00;;;;;;5071837;28;20214;-72
2021/03/07 06:10:38;;;;;;;1.30;1.23;;;-3.40;98.00;;;;;;5069371;28;20269;-72
2021/03/07 06:13:10;;;;;;;1.33;1.27;;;-3.50;98.00;;;;;;5071626;28;20217;-72
2021/03/07 06:15:37;;;;;;;1.20;1.10;;;-3.60;98.00;;;;;;5069061;28;20284;-71
2021/03/07 06:18:18;;;;;;;1.30;1.30;;;-3.50;98.00;;;;;;5071901;28;20230;-71
2021/03/07 06:20:45;;;;;;;1.23;1.20;;;-3.50;98.00;;;;;;5069977;28;20206;-72
2021/03/07 06:23:12;;;;;;;1.20;1.10;;;-3.50;98.00;;;;;;5071819;28;20302;-72
2021/03/07 06:25:47;;;;;;;1.20;1.05;;;-3.30;98.00;;;;;;5068627;28;20252;-72
2021/03/07 06:28:24;;;;;;;1.63;1.50;;;-3.20;98.00;;;;;;5071346;28;20227;-72
2021/03/07 06:30:51;;;;;;;1.40;1.33;;;-3.20;98.00;;;;;;5084728;28;20343;-72
2021/03/07 06:33:33;;;;;;;1.40;1.30;;;-3.30;98.00;;;;;;5071657;28;20938;-72
2021/03/07 06:36:21;;;;;;;1.20;1.20;;;-3.20;98.00;;;;;;5069287;28;20260;-72
2021/03/07 06:38:50;;;;;;;1.48;1.38;;;-3.00;98.00;;;;;;5067050;28;20703;-72
2021/03/07 06:41:18;;;;;;;1.20;1.20;;;-3.20;98.00;;;;;;5070785;28;20270;-71
2021/03/07 06:43:48;;;;;;;1.20;1.00;;;-3.20;98.00;;;;;;5071298;28;20222;-71
2021/03/07 06:46:28;;;;;;;1.88;1.60;;;-3.10;98.00;;;;;;5070361;28;20250;-71
2021/03/07 06:48:56;;;;;;;1.30;1.10;;;-3.00;98.00;;;;;;5068846;28;20198;-71
2021/03/07 06:51:28;;;;;;;1.50;1.42;;;-3.00;98.00;;;;;;5071321;28;20606;-71
2021/03/07 06:53:56;;;;;;;1.20;1.10;;;-2.90;98.00;;;;;;5068594;28;20207;-72
2021/03/07 06:56:42;;;;;;;1.30;1.20;;;-2.90;98.00;;;;;;5071260;28;20202;-71
2021/03/07 06:59:14;;;;;;;3.58;1.67;;;-2.80;98.00;;;;;;5068609;28;20696;-72
2021/03/07 07:01:42;;;;;;;4.55;1.90;;;-2.80;98.00;;;;;;5071090;28;20582;-72
2021/03/07 07:04:10;;;;;;;1.20;1.10;;;-2.60;98.00;;;;;;5068167;28;20258;-71
2021/03/07 07:06:39;;;;;;;1.63;1.50;;;-2.50;98.00;;;;;;5070769;28;20217;-71
2021/03/07 07:09:07;;;;;;;1.40;1.40;;;-2.40;98.00;;;;;;5068242;28;20225;-72
2021/03/07 07:11:44;;;;;;;1.65;1.48;;;-2.40;98.00;;;;;;5070720;28;20198;-72
2021/03/07 07:14:12;;;;;;;1.30;1.25;;;-2.30;98.00;;;;;;5068327;28;20198;-72
2021/03/07 07:16:39;;;;;;;1.50;1.50;;;-2.20;98.00;;;;;;5086382;28;20207;-72
2021/03/07 07:19:06;;;;;;;1.20;1.10;;;-2.10;98.00;;;;;;5068515;28;20207;-72
2021/03/07 07:21:34;;;;;;;1.20;1.00;;;-2.00;98.00;;;;;;5071043;28;20203;-72
2021/03/07 07:24:00;;;;;;;2.35;1.85;;;-1.90;98.00;;;;;;5084112;28;20226;-73
2021/03/07 07:26:27;;;;;;;1.30;1.20;;;-1.80;98.00;;;;;;5070898;28;20249;-72
2021/03/07 07:28:54;;;;;;;2.55;2.25;;;-1.70;98.00;;;;;;5084829;28;20468;-72
2021/03/07 07:31:30;;;;;;;1.20;1.20;;;-1.70;98.00;;;;;;5070772;28;20214;-71
2021/03/07 07:34:00;;;;;;;1.20;1.10;;;-1.70;98.00;;;;;;5068520;28;20213;-72
2021/03/07 07:36:34;;;;;;;1.33;1.25;;;-1.70;98.00;;;;;;5071160;28;20211;-72
2021/03/07 07:39:03;;;;;;;1.20;1.20;;;-1.60;98.00;;;;;;5068413;28;20618;-71
2021/03/07 07:41:35;;;;;;;2.07;1.77;;;-1.50;98.00;;;;;;5071222;28;20264;-71
2021/03/07 07:44:04;;;;;;;1.30;1.05;;;-1.40;98.00;;;;;;5083739;28;20580;-72
2021/03/07 07:46:31;;;;;;;1.33;1.30;;;-1.30;98.00;;;;;;5070717;28;20200;-72
2021/03/07 07:49:00;;;;;;;1.80;1.70;;;-1.10;98.00;;;;;;5068542;28;20226;-71
2021/03/07 07:51:31;;;;;;;1.20;1.00;;;-1.00;98.00;;;;;;5071372;28;20506;-71
2021/03/07 07:53:58;;;;;;;1.20;1.10;;;-0.90;98.00;;;;;;5072113;28;20508;-72
2021/03/07 07:56:49;;;;;;;1.20;1.10;;;-0.80;98.00;;;;;;5074508;28;20599;-70
2021/03/07 07:59:16;;;;;;;2.53;1.40;;;-0.60;98.00;;;;;;5061703;28;20493;-71
2021/03/07 08:01:56;;;;;;;1.60;1.50;;;-0.50;98.00;;;;;;5074298;28;20518;-71
2021/03/07 08:04:39;;;;;;;1.20;1.10;;;-0.40;98.00;;;;;;5071610;28;20486;-71
2021/03/07 08:07:08;;;;;;;2.27;1.60;;;-0.20;98.00;;;;;;5074209;28;20461;-72
2021/03/07 08:09:39;;;;;;;1.20;1.00;;;-0.10;98.00;;;;;;5071734;28;20492;-72
2021/03/07 08:12:43;;;;;;;3.10;1.83;;;-0.10;98.00;;;;;;5074047;28;20470;-71
2021/03/07 08:15:49;;;;;;;2.60;1.80;;;0.20;98.00;;;;;;5071623;28;20484;-71
2021/03/07 08:18:20;;;;;;;1.43;1.40;;;0.40;98.00;;;;;;5074306;28;20488;-71
2021/03/07 08:21:00;;;;;;;2.15;1.83;;;0.60;98.00;;;;;;5071597;28;20496;-72
2021/03/07 08:23:27;;;;;;;1.37;1.30;;;0.80;98.00;;;;;;5073773;28;20225;-72
2021/03/07 08:25:59;;;;;;;1.20;1.07;;;0.80;97.50;;;;;;5071364;28;20495;-71
2021/03/07 08:28:43;;;;;;;2.03;1.43;;;1.00;97.60;;;;;;5072484;28;20454;-74
2021/03/07 08:31:32;;;;;;;1.20;1.10;;;1.00;98.00;;;;;;5070810;28;20479;-77
2021/03/07 08:34:24;;;;;;;1.20;1.10;;;1.20;97.90;;;;;;5072370;28;20454;-78
2021/03/07 08:37:00;;;;;;;1.63;1.50;;;1.30;96.90;;;;;;5072944;28;20888;-77
2021/03/07 08:39:30;;;;;;;1.20;1.13;;;1.40;96.10;;;;;;5070762;28;20460;-78
2021/03/07 08:42:04;;;;;;;2.67;2.07;;;1.50;96.20;;;;;;5072943;28;20491;-76
2021/03/07 08:44:31;;;;;;;1.20;1.10;;;1.70;95.60;;;;;;5070555;28;21001;-77
2021/03/07 08:46:59;;;;;;;1.47;1.10;;;1.80;95.90;;;;;;5072812;28;20480;-77
2021/03/07 08:49:28;;;;;;;1.60;1.20;;;2.00;95.60;;;;;;5086209;28;20857;-77
2021/03/07 08:52:01;;;;;;;4.20;1.70;;;2.20;95.20;;;;;;5072981;28;20471;-76
2021/03/07 08:54:31;;;;;;;1.97;1.87;;;2.40;94.00;;;;;;5070425;28;20462;-76
2021/03/07 08:57:03;;;;;;;3.47;1.73;;;2.60;93.70;;;;;;5072908;28;20527;-77
2021/03/07 08:59:30;;;;;;;3.10;1.40;;;2.80;92.80;;;;;;5070727;28;20827;-73
2021/03/07 09:01:57;;;;;;;1.63;1.43;;;2.90;93.10;;;;;;5072591;28;21004;-73
2021/03/07 09:04:40;;;;;;;1.30;1.20;;;3.00;93.10;;;;;;5069648;28;20987;-75
2021/03/07 09:07:07;;;;;;;1.50;1.30;;;3.30;92.60;;;;;;5072802;28;20479;-75
2021/03/07 09:09:34;;;;;;;1.40;1.27;;;3.50;92.10;;;;;;5070399;28;20533;-74
2021/03/07 09:12:03;;;;;;;1.20;1.00;;;3.60;90.70;;;;;;5072311;28;20456;-74
2021/03/07 09:14:32;;;;;;;4.60;1.97;;;3.70;88.70;;;;;;5070130;28;20462;-75
2021/03/07 09:17:01;;;;;;;1.20;1.17;;;3.80;89.40;;;;;;5072239;28;20467;-74
2021/03/07 09:19:33;;;;;;;1.20;1.00;;;3.90;88.70;;;;;;5070436;28;20449;-77
2021/03/07 09:22:14;;;;;;;1.67;1.37;;;3.90;87.30;;;;;;5072351;28;20503;-75
2021/03/07 09:24:55;;;;;;;4.40;2.10;;;4.10;87.00;;;;;;5070269;28;20489;-76
2021/03/07 09:27:24;;;;;;;1.57;1.47;;;4.30;86.70;;;;;;5072725;28;20484;-76
2021/03/07 09:30:08;;;;;;;1.30;1.10;;;4.70;85.10;;;;;;5070110;28;20453;-75
2021/03/07 09:32:37;;;;;;;1.20;1.00;;;4.90;83.50;;;;;;5071828;28;20460;-75
2021/03/07 09:35:18;;;;;;;1.20;1.00;;;5.20;83.50;;;;;;5069966;28;20449;-74
2021/03/07 09:37:53;;;;;;;1.20;1.10;;;5.40;82.70;;;;;;5071858;28;20967;-78
2021/03/07 09:40:21;;;;;;;1.20;1.00;;;5.60;82.10;;;;;;5069997;28;20519;-77
2021/03/07 09:42:54;;;;;;;1.30;1.10;;;5.70;82.50;;;;;;5071583;28;20500;-80
2021/03/07 09:45:21;;;;;;;1.20;1.10;;;5.70;82.60;;;;;;5069304;28;20517;-78
2021/03/07 09:47:49;;;;;;;1.20;1.00;;;5.80;81.80;;;;;;5071252;28;20468;-76
2021/03/07 09:50:16;;;;;;;1.57;1.40;;;6.00;82.20;;;;;;5069133;28;20559;-75
2021/03/07 09:52:44;;;;;;;1.20;1.10;;;6.10;81.10;;;;;;5071310;28;20494;-79
2021/03/07 09:55:13;;;;;;;1.20;1.00;;;6.20;80.20;;;;;;5069281;28;20464;-77
2021/03/07 09:57:40;;;;;;;1.67;1.40;;;6.30;79.60;;;;;;5071635;28;20456;-78
2021/03/07 10:00:08;;;;;;;1.20;1.03;;;6.60;78.70;;;;;;5068606;28;20811;-79
2021/03/07 10:02:36;;;;;;;1.23;1.17;;;6.80;79.30;;;;;;5071354;28;20458;-78
2021/03/07 10:05:16;;;;;;;1.20;1.10;;;7.10;79.00;;;;;;5069207;28;20479;-79
2021/03/07 10:07:42;;;;;;;1.47;1.30;;;7.40;78.30;;;;;;5076388;28;20466;-78
2021/03/07 10:10:13;;;;;;;1.20;1.00;;;7.60;77.50;;;;;;5071156;28;20456;-78
2021/03/07 10:12:43;;;;;;;1.57;1.23;;;7.80;77.40;;;;;;5071077;28;20988;-78
2021/03/07 10:15:13;;;;;;;1.63;1.10;;;7.90;76.60;;;;;;5068231;28;20492;-78
2021/03/07 10:17:42;;;;;;;4.57;2.37;;;8.00;76.20;;;;;;5071453;28;20536;-76
2021/03/07 10:20:11;;;;;;;1.60;1.27;;;8.30;77.00;;;;;;5069185;28;20460;-76
2021/03/07 10:22:42;;;;;;;1.33;1.30;;;8.60;75.40;;;;;;5071197;28;20801;-74
2021/03/07 10:25:22;;;;;;;2.57;1.63;;;8.70;75.70;;;;;;5069472;28;20486;-77
2021/03/07 10:27:57;;;;;;;1.53;1.30;;;8.70;76.30;;;;;;5071494;28;20511;-78
2021/03/07 10:30:36;;;;;;;2.00;1.53;;;8.50;77.30;;;;;;5069226;28;20463;-78
2021/03/07 10:33:12;;;;;;;1.90;1.50;;;8.20;77.20;;;;;;5070826;28;20495;-78
2021/03/07 10:35:39;;;;;;;1.50;1.20;;;7.80;77.40;;;;;;5068881;28;20545;-78
2021/03/07 10:38:18;;;;;;;1.30;1.27;;;7.40;78.70;;;;;;5071148;28;20522;-78
2021/03/07 10:40:45;;;;;;;1.50;1.30;;;7.10;79.90;;;;;;5068794;28;20452;-77
2021/03/07 10:43:12;;;;;;;1.50;1.47;;;7.00;80.80;;;;;;5070608;28;20477;-75
2021/03/07 10:45:40;;;;;;;1.20;0.90;;;6.90;81.30;;;;;;5068325;28;20538;-75
2021/03/07 10:48:10;;;;;;;2.67;1.30;;;6.80;81.40;;;;;;5070850;28;20457;-75
2021/03/07 10:50:41;;;;;;;3.77;2.00;;;6.80;80.90;;;;;;5068869;28;20475;-75
2021/03/07 10:53:07;;;;;;;3.00;1.77;;;6.80;81.70;;;;;;5070303;28;20460;-74
2021/03/07 10:55:34;;;;;;;2.60;1.77;;;7.00;81.30;;;;;;5068485;28;20502;-75
2021/03/07 10:58:02;;;;;;;1.60;1.37;;;7.10;81.30;;;;;;5086637;28;20461;-76
2021/03/07 11:00:29;;;;;;;2.30;1.33;;;7.30;81.00;;;;;;5068224;28;20461;-75
2021/03/07 11:02:56;;;;;;;3.10;1.63;;;7.20;80.90;;;;;;5071048;28;20817;-78
2021/03/07 11:05:23;;;;;;;3.00;1.67;;;7.20;81.30;;;;;;5068717;28;20561;-79
2021/03/07 11:07:51;;;;;;;2.90;2.00;;;7.20;81.70;;;;;;5070952;28;20540;-79
2021/03/07 11:10:21;;;;;;;2.33;1.63;;;7.30;82.50;;;;;;5068208;28;20545;-79
2021/03/07 11:12:48;;;;;;;1.43;1.20;;;7.40;82.60;;;;;;5070529;28;20468;-78
2021/03/07 11:15:16;;;;;;;1.50;1.37;;;7.60;82.20;;;;;;5068467;28;20458;-79
2021/03/07 11:17:43;;;;;;;2.17;1.47;;;7.70;82.60;;;;;;5070803;28;20458;-78
2021/03/07 11:20:12;;;;;;;1.67;1.33;;;7.70;82.70;;;;;;5069097;28;20462;-79
2021/03/07 11:22:39;;;;;;;1.63;1.47;;;8.10;83.90;;;;;;5070679;28;20462;-79
2021/03/07 11:25:08;;;;;;;1.30;1.10;;;8.20;81.10;;;;;;5067372;28;20486;-78
2021/03/07 11:27:37;;;;;;;1.20;1.00;;;8.30;81.30;;;;;;5073665;28;20505;-79
2021/03/07 11:30:05;;;;;;;1.63;1.30;;;8.40;81.10;;;;;;5072499;28;20456;-79
2021/03/07 11:32:33;;;;;;;1.20;1.00;;;8.40;81.60;;;;;;5090171;28;20458;-79
2021/03/07 11:35:00;;;;;;;1.60;1.50;;;8.90;81.70;;;;;;5072166;28;21063;-76
2021/03/07 11:37:28;;;;;;;1.90;1.57;;;9.30;81.20;;;;;;5075484;28;20486;-80
2021/03/07 11:39:55;;;;;;;1.73;1.33;;;9.40;80.00;;;;;;5072919;28;20462;-80
2021/03/07 11:42:23;;;;;;;1.67;1.43;;;9.20;79.50;;;;;;5074972;28;20829;-81
2021/03/07 11:44:49;;;;;;;2.27;1.50;;;9.30;79.50;;;;;;5073244;28;20486;-81
2021/03/07 11:47:16;;;;;;;1.90;1.47;;;9.10;78.60;;;;;;5075279;28;20470;-81
2021/03/07 11:49:43;;;;;;;2.23;1.83;;;9.00;79.30;;;;;;5073957;28;20466;-80
2021/03/07 11:52:11;;;;;;;4.00;1.73;;;9.00;79.50;;;;;;5076113;28;20508;-81
2021/03/07 11:54:38;;;;;;;1.70;1.50;;;8.90;80.80;;;;;;5088743;28;20553;-81
2021/03/07 11:57:05;;;;;;;3.30;2.07;;;8.80;79.70;;;;;;5075419;28;20498;-80
2021/03/07 11:59:33;;;;;;;2.10;1.80;;;8.90;79.70;;;;;;5073164;28;20508;-80
2021/03/07 12:02:00;;;;;;;1.97;1.67;;;9.00;79.50;;;;;;5075596;28;20452;-80
2021/03/07 12:04:27;;;;;;;3.37;1.53;;;9.40;79.90;;;;;;5073051;28;20485;-81
2021/03/07 12:06:54;;;;;;;4.23;1.53;;;9.70;78.20;;;;;;5075561;28;20965;-80
2021/03/07 12:09:21;;;;;;;2.27;1.70;;;9.80;78.20;;;;;;5074303;28;20488;-80
2021/03/07 12:11:48;;;;;;;1.20;1.00;;;10.20;76.60;;;;;;5075346;28;20464;-80
2021/03/07 12:14:14;;;;;;;2.37;1.60;;;10.70;77.50;;;;;;5074438;28;20452;-79
2021/03/07 12:16:41;;;;;;;1.30;1.20;;;10.40;75.40;;;;;;5073110;28;20466;-79
2021/03/07 12:19:08;;;;;;;2.50;1.83;;;10.50;75.40;;;;;;5074835;28;20471;-78
2021/03/07 12:21:34;;;;;;;3.43;2.40;;;10.50;74.60;;;;;;5072625;28;20459;-78
2021/03/07 12:24:02;;;;;;;1.30;1.20;;;10.50;74.50;;;;;;5073140;28;20492;-77
2021/03/07 12:26:28;;;;;;;1.87;1.40;;;10.30;75.60;;;;;;5070925;28;20457;-78
2021/03/07 12:28:55;;;;;;;1.60;1.40;;;10.20;75.50;;;;;;5073816;28;20588;-78
2021/03/07 12:31:23;;;;;;;1.90;1.47;;;10.30;76.20;;;;;;5071796;28;20473;-78
2021/03/07 12:33:51;;;;;;;1.77;1.40;;;10.40;74.90;;;;;;5074325;28;20494;-78
2021/03/07 12:36:17;;;;;;;1.73;1.63;;;10.30;75.20;;;;;;5071487;28;20467;-78
2021/03/07 12:38:44;;;;;;;1.60;1.50;;;10.10;74.50;;;;;;5072194;28;20522;-79
2021/03/07 12:41:11;;;;;;;1.97;1.40;;;10.10;74.30;;;;;;5071258;28;20460;-80
2021/03/07 12:43:38;;;;;;;1.70;1.40;;;10.10;74.70;;;;;;5072939;28;20479;-79
2021/03/07 12:46:04;;;;;;;1.50;1.37;;;10.10;75.00;;;;;;5070589;28;20522;-80
2021/03/07 12:48:31;;;;;;;1.40;1.33;;;10.40;74.20;;;;;;5073327;28;20485;-80
2021/03/07 12:50:57;;;;;;;4.10;1.70;;;10.50;73.50;;;;;;5071015;28;20457;-80
2021/03/07 12:53:24;;;;;;;2.30;1.50;;;10.60;73.10;;;;;;5072608;28;20477;-80
2021/03/07 12:55:50;;;;;;;1.40;1.20;;;10.60;74.00;;;;;;5071020;28;20460;-80
2021/03/07 12:58:18;;;;;;;1.27;1.20;;;10.60;74.00;;;;;;5072978;28;20475;-80
2021/03/07 13:00:44;;;;;;;1.90;1.50;;;10.60;73.90;;;;;;5070794;28;20457;-80